sensor_id;sensor_type;location;lat;lon;timestamp;temperature;humidity
75821;DHT22;64454;51.984;9.838;2023-06-10T00:01:45;21.10;1.00
75821;DHT22;64454;51.984;9.838;2023-06-10T00:04:14;21.20;1.00
75821;DHT22;64454;51.984;9.838;2023-06-10T00:06:43;21.10;1.00
75821;DHT22;64454;51.984;9.838;2023-06-10T00:09:10;21.10;1.00
75821;DHT22;64454;51.984;9.838;2023-06-10T00:11:41;21.00;1.00
75821;DHT22;64454;51.984;9.838;2023-06-10T00:14:08;21.00;1.00
75821;DHT22;64454;51.984;9.838;2023-06-10T00:16:35;20.90;1.00
75821;DHT22;64454;51.984;9.838;2023-06-10T00:19:03;20.90;1.00
75821;DHT22;64454;51.984;9.838;2023-06-10T00:21:31;20.90;1.00
75821;DHT22;64454;51.984;9.838;2023-06-10T00:24:03;20.80;1.00
75821;DHT22;64454;51.984;9.838;2023-06-10T00:26:32;20.70;1.00
75821;DHT22;64454;51.984;9.838;2023-06-10T00:29:00;20.60;1.00
75821;DHT22;64454;51.984;9.838;2023-06-10T00:31:27;20.50;1.00
75821;DHT22;64454;51.984;9.838;2023-06-10T00:33:54;20.40;1.00
75821;DHT22;64454;51.984;9.838;2023-06-10T00:36:20;20.30;1.00
75821;DHT22;64454;51.984;9.838;2023-06-10T00:38:47;20.20;1.00
75821;DHT22;64454;51.984;9.838;2023-06-10T00:41:14;20.10;1.00
75821;DHT22;64454;51.984;9.838;2023-06-10T00:43:41;19.90;1.00
75821;DHT22;64454;51.984;9.838;2023-06-10T00:46:09;19.80;1.00
75821;DHT22;64454;51.984;9.838;2023-06-10T00:48:39;19.60;1.00
75821;DHT22;64454;51.984;9.838;2023-06-10T00:51:08;19.60;1.00
75821;DHT22;64454;51.984;9.838;2023-06-10T00:53:36;19.40;1.00
75821;DHT22;64454;51.984;9.838;2023-06-10T00:56:06;19.40;1.00
75821;DHT22;64454;51.984;9.838;2023-06-10T00:58:33;19.30;1.00
75821;DHT22;64454;51.984;9.838;2023-06-10T01:01:01;19.30;1.00
75821;DHT22;64454;51.984;9.838;2023-06-10T01:03:30;19.20;1.00
75821;DHT22;64454;51.984;9.838;2023-06-10T01:06:03;19.10;1.00
75821;DHT22;64454;51.984;9.838;2023-06-10T01:08:41;19.10;1.00
75821;DHT22;64454;51.984;9.838;2023-06-10T01:11:17;19.00;1.00
75821;DHT22;64454;51.984;9.838;2023-06-10T01:13:48;18.90;1.00
75821;DHT22;64454;51.984;9.838;2023-06-10T01:16:18;18.90;1.00
75821;DHT22;64454;51.984;9.838;2023-06-10T01:18:47;18.80;1.00
75821;DHT22;64454;51.984;9.838;2023-06-10T01:21:19;18.70;1.00
75821;DHT22;64454;51.984;9.838;2023-06-10T01:23:51;18.70;1.00
75821;DHT22;64454;51.984;9.838;2023-06-10T01:26:20;18.70;1.00
75821;DHT22;64454;51.984;9.838;2023-06-10T01:28:54;18.70;1.00
75821;DHT22;64454;51.984;9.838;2023-06-10T01:31:32;18.60;1.00
75821;DHT22;64454;51.984;9.838;2023-06-10T01:34:08;18.50;1.00
75821;DHT22;64454;51.984;9.838;2023-06-10T01:36:41;18.40;1.00
75821;DHT22;64454;51.984;9.838;2023-06-10T01:39:11;18.30;1.00
75821;DHT22;64454;51.984;9.838;2023-06-10T01:41:40;18.20;1.00
75821;DHT22;64454;51.984;9.838;2023-06-10T01:44:07;18.20;1.00
75821;DHT22;64454;51.984;9.838;2023-06-10T01:46:34;18.10;1.00
75821;DHT22;64454;51.984;9.838;2023-06-10T01:49:01;18.10;1.00
75821;DHT22;64454;51.984;9.838;2023-06-10T01:51:28;18.10;1.00
75821;DHT22;64454;51.984;9.838;2023-06-10T01:53:58;18.10;1.00
75821;DHT22;64454;51.984;9.838;2023-06-10T01:56:25;18.10;1.00
75821;DHT22;64454;51.984;9.838;2023-06-10T01:58:51;18.00;1.00
75821;DHT22;64454;51.984;9.838;2023-06-10T02:01:20;18.00;1.00
75821;DHT22;64454;51.984;9.838;2023-06-10T02:03:47;17.90;1.00
75821;DHT22;64454;51.984;9.838;2023-06-10T02:06:14;17.90;1.00
75821;DHT22;64454;51.984;9.838;2023-06-10T02:08:41;17.80;1.00
75821;DHT22;64454;51.984;9.838;2023-06-10T02:11:09;17.80;1.00
75821;DHT22;64454;51.984;9.838;2023-06-10T02:13:36;17.80;1.00
75821;DHT22;64454;51.984;9.838;2023-06-10T02:16:04;17.70;1.00
75821;DHT22;64454;51.984;9.838;2023-06-10T02:18:32;17.60;1.00
75821;DHT22;64454;51.984;9.838;2023-06-10T02:20:59;17.50;1.00
75821;DHT22;64454;51.984;9.838;2023-06-10T02:23:26;17.40;1.00
75821;DHT22;64454;51.984;9.838;2023-06-10T02:25:52;17.40;1.00
75821;DHT22;64454;51.984;9.838;2023-06-10T02:28:20;17.30;1.00
75821;DHT22;64454;51.984;9.838;2023-06-10T02:30:47;17.30;1.00
75821;DHT22;64454;51.984;9.838;2023-06-10T02:33:14;17.20;1.00
75821;DHT22;64454;51.984;9.838;2023-06-10T02:35:42;17.20;1.00
75821;DHT22;64454;51.984;9.838;2023-06-10T02:38:09;17.20;1.00
75821;DHT22;64454;51.984;9.838;2023-06-10T02:40:36;17.20;1.00
75821;DHT22;64454;51.984;9.838;2023-06-10T02:43:03;17.10;1.00
75821;DHT22;64454;51.984;9.838;2023-06-10T02:45:31;17.10;1.00
75821;DHT22;64454;51.984;9.838;2023-06-10T02:47:58;17.00;1.00
75821;DHT22;64454;51.984;9.838;2023-06-10T02:50:25;17.00;1.00
75821;DHT22;64454;51.984;9.838;2023-06-10T02:52:51;17.00;1.00
75821;DHT22;64454;51.984;9.838;2023-06-10T02:55:18;17.00;1.00
75821;DHT22;64454;51.984;9.838;2023-06-10T02:57:45;16.90;1.00
75821;DHT22;64454;51.984;9.838;2023-06-10T03:00:13;17.00;1.00
75821;DHT22;64454;51.984;9.838;2023-06-10T03:02:41;17.00;1.00
75821;DHT22;64454;51.984;9.838;2023-06-10T03:05:11;17.00;1.00
75821;DHT22;64454;51.984;9.838;2023-06-10T03:07:38;17.00;1.00
75821;DHT22;64454;51.984;9.838;2023-06-10T03:10:07;17.00;1.00
75821;DHT22;64454;51.984;9.838;2023-06-10T03:12:34;17.00;1.00
75821;DHT22;64454;51.984;9.838;2023-06-10T03:15:01;17.00;1.00
75821;DHT22;64454;51.984;9.838;2023-06-10T03:17:29;17.00;1.00
75821;DHT22;64454;51.984;9.838;2023-06-10T03:19:57;16.90;1.00
75821;DHT22;64454;51.984;9.838;2023-06-10T03:22:24;16.80;1.00
75821;DHT22;64454;51.984;9.838;2023-06-10T03:24:51;16.80;1.00
75821;DHT22;64454;51.984;9.838;2023-06-10T03:27:18;16.80;1.00
75821;DHT22;64454;51.984;9.838;2023-06-10T03:29:45;16.80;1.00
75821;DHT22;64454;51.984;9.838;2023-06-10T03:32:12;16.90;1.00
75821;DHT22;64454;51.984;9.838;2023-06-10T03:34:39;16.80;1.00
75821;DHT22;64454;51.984;9.838;2023-06-10T03:37:08;16.80;1.00
75821;DHT22;64454;51.984;9.838;2023-06-10T03:39:34;16.70;1.00
75821;DHT22;64454;51.984;9.838;2023-06-10T03:42:01;16.50;1.00
75821;DHT22;64454;51.984;9.838;2023-06-10T03:44:28;16.50;1.00
75821;DHT22;64454;51.984;9.838;2023-06-10T03:46:55;16.50;1.00
75821;DHT22;64454;51.984;9.838;2023-06-10T03:49:23;16.50;1.00
75821;DHT22;64454;51.984;9.838;2023-06-10T03:51:52;16.50;1.00
75821;DHT22;64454;51.984;9.838;2023-06-10T03:54:21;16.60;1.00
75821;DHT22;64454;51.984;9.838;2023-06-10T03:56:48;16.60;1.00
75821;DHT22;64454;51.984;9.838;2023-06-10T03:59:17;16.60;1.00
75821;DHT22;64454;51.984;9.838;2023-06-10T04:01:45;16.60;1.00
75821;DHT22;64454;51.984;9.838;2023-06-10T04:04:14;16.60;1.00
75821;DHT22;64454;51.984;9.838;2023-06-10T04:06:43;16.60;1.00
75821;DHT22;64454;51.984;9.838;2023-06-10T04:09:10;16.70;1.00
75821;DHT22;64454;51.984;9.838;2023-06-10T04:11:39;16.50;1.00
75821;DHT22;64454;51.984;9.838;2023-06-10T04:14:06;16.40;1.00
75821;DHT22;64454;51.984;9.838;2023-06-10T04:16:34;16.30;1.00
75821;DHT22;64454;51.984;9.838;2023-06-10T04:19:01;16.20;1.00
75821;DHT22;64454;51.984;9.838;2023-06-10T04:21:28;16.30;1.00
75821;DHT22;64454;51.984;9.838;2023-06-10T04:23:55;16.20;1.00
75821;DHT22;64454;51.984;9.838;2023-06-10T04:26:21;16.10;1.00
75821;DHT22;64454;51.984;9.838;2023-06-10T04:28:49;16.10;1.00
75821;DHT22;64454;51.984;9.838;2023-06-10T04:31:16;16.20;1.00
75821;DHT22;64454;51.984;9.838;2023-06-10T04:33:43;16.20;1.00
75821;DHT22;64454;51.984;9.838;2023-06-10T04:36:10;16.20;1.00
75821;DHT22;64454;51.984;9.838;2023-06-10T04:38:37;16.20;1.00
75821;DHT22;64454;51.984;9.838;2023-06-10T04:41:04;16.30;1.00
75821;DHT22;64454;51.984;9.838;2023-06-10T04:43:30;16.30;1.00
75821;DHT22;64454;51.984;9.838;2023-06-10T04:45:58;16.50;1.00
75821;DHT22;64454;51.984;9.838;2023-06-10T04:48:25;16.50;1.00
75821;DHT22;64454;51.984;9.838;2023-06-10T04:50:52;16.40;1.00
75821;DHT22;64454;51.984;9.838;2023-06-10T04:53:19;16.40;1.00
75821;DHT22;64454;51.984;9.838;2023-06-10T04:55:46;16.40;1.00
75821;DHT22;64454;51.984;9.838;2023-06-10T04:58:13;16.40;1.00
75821;DHT22;64454;51.984;9.838;2023-06-10T05:00:40;16.50;1.00
75821;DHT22;64454;51.984;9.838;2023-06-10T05:03:10;16.40;1.00
75821;DHT22;64454;51.984;9.838;2023-06-10T05:05:55;16.50;1.00
75821;DHT22;64454;51.984;9.838;2023-06-10T05:08:43;16.60;1.00
75821;DHT22;64454;51.984;9.838;2023-06-10T05:11:30;16.50;1.00
75821;DHT22;64454;51.984;9.838;2023-06-10T05:13:56;16.60;1.00
75821;DHT22;64454;51.984;9.838;2023-06-10T05:16:23;16.60;1.00
75821;DHT22;64454;51.984;9.838;2023-06-10T05:18:51;16.70;1.00
75821;DHT22;64454;51.984;9.838;2023-06-10T05:21:18;16.60;1.00
75821;DHT22;64454;51.984;9.838;2023-06-10T05:23:45;16.80;1.00
75821;DHT22;64454;51.984;9.838;2023-06-10T05:26:12;16.80;1.00
75821;DHT22;64454;51.984;9.838;2023-06-10T05:28:39;16.80;1.00
75821;DHT22;64454;51.984;9.838;2023-06-10T05:31:06;17.00;1.00
75821;DHT22;64454;51.984;9.838;2023-06-10T05:33:33;16.90;1.00
75821;DHT22;64454;51.984;9.838;2023-06-10T05:36:01;17.10;1.00
75821;DHT22;64454;51.984;9.838;2023-06-10T05:38:28;17.10;1.00
75821;DHT22;64454;51.984;9.838;2023-06-10T05:40:55;17.10;1.00
75821;DHT22;64454;51.984;9.838;2023-06-10T05:43:24;17.20;1.00
75821;DHT22;64454;51.984;9.838;2023-06-10T05:45:51;17.20;1.00
75821;DHT22;64454;51.984;9.838;2023-06-10T05:48:17;17.30;1.00
75821;DHT22;64454;51.984;9.838;2023-06-10T05:50:45;17.30;1.00
75821;DHT22;64454;51.984;9.838;2023-06-10T05:53:15;17.40;1.00
75821;DHT22;64454;51.984;9.838;2023-06-10T05:55:42;17.40;1.00
75821;DHT22;64454;51.984;9.838;2023-06-10T05:58:09;17.50;1.00
75821;DHT22;64454;51.984;9.838;2023-06-10T06:00:37;17.60;1.00
75821;DHT22;64454;51.984;9.838;2023-06-10T06:03:06;17.70;1.00
75821;DHT22;64454;51.984;9.838;2023-06-10T06:05:33;17.80;1.00
75821;DHT22;64454;51.984;9.838;2023-06-10T06:08:02;18.00;1.00
75821;DHT22;64454;51.984;9.838;2023-06-10T06:10:31;18.10;1.00
75821;DHT22;64454;51.984;9.838;2023-06-10T06:12:58;18.10;1.00
75821;DHT22;64454;51.984;9.838;2023-06-10T06:15:25;18.30;1.00
75821;DHT22;64454;51.984;9.838;2023-06-10T06:17:52;18.30;1.00
75821;DHT22;64454;51.984;9.838;2023-06-10T06:20:19;18.40;1.00
75821;DHT22;64454;51.984;9.838;2023-06-10T06:22:46;18.50;1.00
75821;DHT22;64454;51.984;9.838;2023-06-10T06:25:13;18.40;1.00
75821;DHT22;64454;51.984;9.838;2023-06-10T06:27:41;18.60;1.00
75821;DHT22;64454;51.984;9.838;2023-06-10T06:30:08;18.80;1.00
75821;DHT22;64454;51.984;9.838;2023-06-10T06:32:35;18.90;1.00
75821;DHT22;64454;51.984;9.838;2023-06-10T06:35:03;19.00;1.00
75821;DHT22;64454;51.984;9.838;2023-06-10T06:37:33;19.00;1.00
75821;DHT22;64454;51.984;9.838;2023-06-10T06:40:00;19.10;1.00
75821;DHT22;64454;51.984;9.838;2023-06-10T06:42:29;19.10;1.00
75821;DHT22;64454;51.984;9.838;2023-06-10T06:44:57;19.30;1.00
75821;DHT22;64454;51.984;9.838;2023-06-10T06:47:24;19.30;1.00
75821;DHT22;64454;51.984;9.838;2023-06-10T06:49:51;19.50;1.00
75821;DHT22;64454;51.984;9.838;2023-06-10T06:52:19;19.70;1.00
75821;DHT22;64454;51.984;9.838;2023-06-10T06:54:45;19.80;1.00
75821;DHT22;64454;51.984;9.838;2023-06-10T06:57:12;19.90;1.00
75821;DHT22;64454;51.984;9.838;2023-06-10T06:59:39;20.00;1.00
75821;DHT22;64454;51.984;9.838;2023-06-10T07:02:07;19.90;1.00
75821;DHT22;64454;51.984;9.838;2023-06-10T07:04:34;20.00;1.00
75821;DHT22;64454;51.984;9.838;2023-06-10T07:07:01;20.10;1.00
75821;DHT22;64454;51.984;9.838;2023-06-10T07:09:28;20.20;1.00
75821;DHT22;64454;51.984;9.838;2023-06-10T07:11:55;20.30;1.00
75821;DHT22;64454;51.984;9.838;2023-06-10T07:14:21;20.40;1.00
75821;DHT22;64454;51.984;9.838;2023-06-10T07:16:48;20.60;1.00
75821;DHT22;64454;51.984;9.838;2023-06-10T07:19:18;20.80;1.00
75821;DHT22;64454;51.984;9.838;2023-06-10T07:21:46;20.90;1.00
75821;DHT22;64454;51.984;9.838;2023-06-10T07:24:13;21.00;1.00
75821;DHT22;64454;51.984;9.838;2023-06-10T07:26:42;21.00;1.00
75821;DHT22;64454;51.984;9.838;2023-06-10T07:29:08;21.10;1.00
75821;DHT22;64454;51.984;9.838;2023-06-10T07:31:35;21.30;1.00
75821;DHT22;64454;51.984;9.838;2023-06-10T07:34:02;21.40;1.00
75821;DHT22;64454;51.984;9.838;2023-06-10T07:36:30;21.40;1.00
75821;DHT22;64454;51.984;9.838;2023-06-10T07:38:57;21.60;1.00
75821;DHT22;64454;51.984;9.838;2023-06-10T07:41:24;21.80;1.00
75821;DHT22;64454;51.984;9.838;2023-06-10T07:43:52;21.80;1.00
75821;DHT22;64454;51.984;9.838;2023-06-10T07:46:20;21.90;1.00
75821;DHT22;64454;51.984;9.838;2023-06-10T07:48:47;21.90;1.00
75821;DHT22;64454;51.984;9.838;2023-06-10T07:51:15;22.10;1.00
75821;DHT22;64454;51.984;9.838;2023-06-10T07:53:43;22.20;1.00
75821;DHT22;64454;51.984;9.838;2023-06-10T07:56:11;22.30;1.00
75821;DHT22;64454;51.984;9.838;2023-06-10T07:58:38;22.50;1.00
75821;DHT22;64454;51.984;9.838;2023-06-10T08:01:05;22.70;1.00
75821;DHT22;64454;51.984;9.838;2023-06-10T08:03:32;22.70;1.00
75821;DHT22;64454;51.984;9.838;2023-06-10T08:05:59;22.80;1.00
75821;DHT22;64454;51.984;9.838;2023-06-10T08:08:26;22.90;1.00
75821;DHT22;64454;51.984;9.838;2023-06-10T08:10:54;23.00;1.00
75821;DHT22;64454;51.984;9.838;2023-06-10T08:13:21;23.10;1.00
75821;DHT22;64454;51.984;9.838;2023-06-10T08:15:48;23.20;1.00
75821;DHT22;64454;51.984;9.838;2023-06-10T08:18:16;23.40;1.00
75821;DHT22;64454;51.984;9.838;2023-06-10T08:20:43;23.40;1.00
75821;DHT22;64454;51.984;9.838;2023-06-10T08:23:09;23.70;1.00
75821;DHT22;64454;51.984;9.838;2023-06-10T08:25:36;23.90;1.00
75821;DHT22;64454;51.984;9.838;2023-06-10T08:28:04;24.20;1.00
75821;DHT22;64454;51.984;9.838;2023-06-10T08:30:31;24.30;1.00
75821;DHT22;64454;51.984;9.838;2023-06-10T08:32:59;24.30;1.00
75821;DHT22;64454;51.984;9.838;2023-06-10T08:35:26;24.50;1.00
75821;DHT22;64454;51.984;9.838;2023-06-10T08:37:52;24.70;1.00
75821;DHT22;64454;51.984;9.838;2023-06-10T08:40:19;24.60;1.00
75821;DHT22;64454;51.984;9.838;2023-06-10T08:42:50;24.90;1.00
75821;DHT22;64454;51.984;9.838;2023-06-10T08:45:30;24.90;1.00
75821;DHT22;64454;51.984;9.838;2023-06-10T08:47:59;25.00;1.00
75821;DHT22;64454;51.984;9.838;2023-06-10T08:50:28;25.10;1.00
75821;DHT22;64454;51.984;9.838;2023-06-10T08:52:57;25.30;1.00
75821;DHT22;64454;51.984;9.838;2023-06-10T08:55:29;25.40;1.00
75821;DHT22;64454;51.984;9.838;2023-06-10T08:57:59;25.50;1.00
75821;DHT22;64454;51.984;9.838;2023-06-10T09:00:29;25.60;1.00
75821;DHT22;64454;51.984;9.838;2023-06-10T09:02:58;25.70;1.00
75821;DHT22;64454;51.984;9.838;2023-06-10T09:05:27;25.80;1.00
75821;DHT22;64454;51.984;9.838;2023-06-10T09:07:57;26.10;1.00
75821;DHT22;64454;51.984;9.838;2023-06-10T09:10:25;26.40;1.00
75821;DHT22;64454;51.984;9.838;2023-06-10T09:12:52;26.60;1.00
75821;DHT22;64454;51.984;9.838;2023-06-10T09:15:20;26.70;1.00
75821;DHT22;64454;51.984;9.838;2023-06-10T09:17:48;26.90;1.00
75821;DHT22;64454;51.984;9.838;2023-06-10T09:20:16;27.00;1.00
75821;DHT22;64454;51.984;9.838;2023-06-10T09:22:43;27.00;1.00
75821;DHT22;64454;51.984;9.838;2023-06-10T09:25:11;27.20;1.00
75821;DHT22;64454;51.984;9.838;2023-06-10T09:27:46;27.20;1.00
75821;DHT22;64454;51.984;9.838;2023-06-10T09:30:25;27.50;1.00
75821;DHT22;64454;51.984;9.838;2023-06-10T09:32:54;27.60;1.00
75821;DHT22;64454;51.984;9.838;2023-06-10T09:35:22;27.70;1.00
75821;DHT22;64454;51.984;9.838;2023-06-10T09:37:51;28.00;1.00
75821;DHT22;64454;51.984;9.838;2023-06-10T09:40:19;28.20;1.00
75821;DHT22;64454;51.984;9.838;2023-06-10T09:42:46;28.40;1.00
75821;DHT22;64454;51.984;9.838;2023-06-10T09:45:19;28.70;1.00
75821;DHT22;64454;51.984;9.838;2023-06-10T09:47:46;28.70;1.00
75821;DHT22;64454;51.984;9.838;2023-06-10T09:50:14;28.80;1.00
75821;DHT22;64454;51.984;9.838;2023-06-10T09:52:40;28.80;1.00
75821;DHT22;64454;51.984;9.838;2023-06-10T09:55:08;29.00;1.00
75821;DHT22;64454;51.984;9.838;2023-06-10T09:57:36;28.90;1.00
75821;DHT22;64454;51.984;9.838;2023-06-10T10:00:05;29.00;1.00
75821;DHT22;64454;51.984;9.838;2023-06-10T10:02:44;29.10;1.00
75821;DHT22;64454;51.984;9.838;2023-06-10T10:05:15;29.30;1.00
75821;DHT22;64454;51.984;9.838;2023-06-10T10:07:43;29.60;1.00
75821;DHT22;64454;51.984;9.838;2023-06-10T10:10:11;29.70;1.00
75821;DHT22;64454;51.984;9.838;2023-06-10T10:12:40;29.70;1.00
75821;DHT22;64454;51.984;9.838;2023-06-10T10:15:09;29.70;1.00
75821;DHT22;64454;51.984;9.838;2023-06-10T10:17:39;29.60;1.00
75821;DHT22;64454;51.984;9.838;2023-06-10T10:20:13;29.60;1.00
75821;DHT22;64454;51.984;9.838;2023-06-10T10:22:46;29.60;1.00
75821;DHT22;64454;51.984;9.838;2023-06-10T10:25:23;29.60;1.00
75821;DHT22;64454;51.984;9.838;2023-06-10T10:27:57;29.60;1.00
75821;DHT22;64454;51.984;9.838;2023-06-10T10:30:30;29.60;1.00
75821;DHT22;64454;51.984;9.838;2023-06-10T10:33:06;29.60;1.00
75821;DHT22;64454;51.984;9.838;2023-06-10T10:35:37;29.70;1.00
75821;DHT22;64454;51.984;9.838;2023-06-10T10:38:05;29.90;1.00
75821;DHT22;64454;51.984;9.838;2023-06-10T10:40:33;30.10;1.00
75821;DHT22;64454;51.984;9.838;2023-06-10T10:43:01;30.30;1.00
75821;DHT22;64454;51.984;9.838;2023-06-10T10:45:29;30.30;1.00
75821;DHT22;64454;51.984;9.838;2023-06-10T10:47:56;30.30;1.00
75821;DHT22;64454;51.984;9.838;2023-06-10T10:50:23;30.60;1.00
75821;DHT22;64454;51.984;9.838;2023-06-10T10:52:54;30.80;1.00
75821;DHT22;64454;51.984;9.838;2023-06-10T10:55:22;30.80;1.00
75821;DHT22;64454;51.984;9.838;2023-06-10T10:57:54;30.90;1.00
75821;DHT22;64454;51.984;9.838;2023-06-10T11:00:27;30.90;1.00
75821;DHT22;64454;51.984;9.838;2023-06-10T11:02:58;30.80;1.00
75821;DHT22;64454;51.984;9.838;2023-06-10T11:05:38;30.80;1.00
75821;DHT22;64454;51.984;9.838;2023-06-10T11:08:08;30.70;1.00
75821;DHT22;64454;51.984;9.838;2023-06-10T11:10:36;30.80;1.00
75821;DHT22;64454;51.984;9.838;2023-06-10T11:13:08;30.80;1.00
75821;DHT22;64454;51.984;9.838;2023-06-10T11:15:39;30.90;1.00
75821;DHT22;64454;51.984;9.838;2023-06-10T11:18:13;30.90;1.00
75821;DHT22;64454;51.984;9.838;2023-06-10T11:20:53;30.90;1.00
75821;DHT22;64454;51.984;9.838;2023-06-10T11:23:41;31.10;1.00
75821;DHT22;64454;51.984;9.838;2023-06-10T11:26:14;31.30;1.00
75821;DHT22;64454;51.984;9.838;2023-06-10T11:29:06;31.20;1.00
75821;DHT22;64454;51.984;9.838;2023-06-10T11:31:40;31.50;1.00
75821;DHT22;64454;51.984;9.838;2023-06-10T11:34:08;31.60;1.00
75821;DHT22;64454;51.984;9.838;2023-06-10T11:36:37;31.70;1.00
75821;DHT22;64454;51.984;9.838;2023-06-10T11:39:12;31.60;1.00
75821;DHT22;64454;51.984;9.838;2023-06-10T11:41:41;31.60;1.00
75821;DHT22;64454;51.984;9.838;2023-06-10T11:44:09;31.60;1.00
75821;DHT22;64454;51.984;9.838;2023-06-10T11:46:37;31.70;1.00
75821;DHT22;64454;51.984;9.838;2023-06-10T11:49:06;31.70;1.00
75821;DHT22;64454;51.984;9.838;2023-06-10T11:51:35;31.90;1.00
75821;DHT22;64454;51.984;9.838;2023-06-10T11:54:03;31.90;1.00
75821;DHT22;64454;51.984;9.838;2023-06-10T11:56:32;32.00;1.00
75821;DHT22;64454;51.984;9.838;2023-06-10T11:59:00;32.00;1.00
75821;DHT22;64454;51.984;9.838;2023-06-10T12:01:30;32.10;1.00
75821;DHT22;64454;51.984;9.838;2023-06-10T12:03:59;32.30;1.00
75821;DHT22;64454;51.984;9.838;2023-06-10T12:06:27;32.40;1.00
75821;DHT22;64454;51.984;9.838;2023-06-10T12:09:04;32.60;1.00
75821;DHT22;64454;51.984;9.838;2023-06-10T12:11:33;32.50;1.00
75821;DHT22;64454;51.984;9.838;2023-06-10T12:14:00;32.60;1.00
75821;DHT22;64454;51.984;9.838;2023-06-10T12:16:29;32.50;1.00
75821;DHT22;64454;51.984;9.838;2023-06-10T12:19:01;32.50;1.00
75821;DHT22;64454;51.984;9.838;2023-06-10T12:21:29;32.40;1.00
75821;DHT22;64454;51.984;9.838;2023-06-10T12:24:07;32.40;1.00
75821;DHT22;64454;51.984;9.838;2023-06-10T12:26:39;32.20;1.00
75821;DHT22;64454;51.984;9.838;2023-06-10T12:29:22;32.30;1.00
75821;DHT22;64454;51.984;9.838;2023-06-10T12:31:58;32.40;1.00
75821;DHT22;64454;51.984;9.838;2023-06-10T12:34:36;32.50;1.00
75821;DHT22;64454;51.984;9.838;2023-06-10T12:37:05;32.40;1.00
75821;DHT22;64454;51.984;9.838;2023-06-10T12:39:33;32.50;1.00
75821;DHT22;64454;51.984;9.838;2023-06-10T12:42:03;32.60;1.00
75821;DHT22;64454;51.984;9.838;2023-06-10T12:44:35;32.60;1.00
75821;DHT22;64454;51.984;9.838;2023-06-10T12:47:08;32.70;1.00
75821;DHT22;64454;51.984;9.838;2023-06-10T12:49:37;32.50;1.00
75821;DHT22;64454;51.984;9.838;2023-06-10T12:52:05;32.60;1.00
75821;DHT22;64454;51.984;9.838;2023-06-10T12:54:34;32.60;1.00
75821;DHT22;64454;51.984;9.838;2023-06-10T12:57:02;32.70;1.00
75821;DHT22;64454;51.984;9.838;2023-06-10T12:59:30;32.60;1.00
75821;DHT22;64454;51.984;9.838;2023-06-10T13:01:58;32.60;1.00
75821;DHT22;64454;51.984;9.838;2023-06-10T13:04:24;32.70;1.00
75821;DHT22;64454;51.984;9.838;2023-06-10T13:06:52;32.60;1.00
75821;DHT22;64454;51.984;9.838;2023-06-10T13:09:21;32.60;1.00
75821;DHT22;64454;51.984;9.838;2023-06-10T13:11:48;32.60;1.00
75821;DHT22;64454;51.984;9.838;2023-06-10T13:14:17;32.60;1.00
75821;DHT22;64454;51.984;9.838;2023-06-10T13:16:45;32.80;1.00
75821;DHT22;64454;51.984;9.838;2023-06-10T13:19:12;32.70;1.00
75821;DHT22;64454;51.984;9.838;2023-06-10T13:21:39;32.70;1.00
75821;DHT22;64454;51.984;9.838;2023-06-10T13:24:06;32.60;1.00
75821;DHT22;64454;51.984;9.838;2023-06-10T13:26:33;32.70;1.00
75821;DHT22;64454;51.984;9.838;2023-06-10T13:29:00;32.70;1.00
75821;DHT22;64454;51.984;9.838;2023-06-10T13:31:28;32.90;1.00
75821;DHT22;64454;51.984;9.838;2023-06-10T13:33:55;33.00;1.00
75821;DHT22;64454;51.984;9.838;2023-06-10T13:36:22;33.10;1.00
75821;DHT22;64454;51.984;9.838;2023-06-10T13:38:48;33.10;1.00
75821;DHT22;64454;51.984;9.838;2023-06-10T13:41:16;33.00;1.00
75821;DHT22;64454;51.984;9.838;2023-06-10T13:43:42;32.90;1.00
75821;DHT22;64454;51.984;9.838;2023-06-10T13:46:09;32.70;1.00
75821;DHT22;64454;51.984;9.838;2023-06-10T13:48:37;32.70;1.00
75821;DHT22;64454;51.984;9.838;2023-06-10T13:51:04;32.80;1.00
75821;DHT22;64454;51.984;9.838;2023-06-10T13:53:32;32.70;1.00
75821;DHT22;64454;51.984;9.838;2023-06-10T13:55:59;32.80;1.00
75821;DHT22;64454;51.984;9.838;2023-06-10T13:58:26;32.90;1.00
75821;DHT22;64454;51.984;9.838;2023-06-10T14:00:53;32.80;1.00
75821;DHT22;64454;51.984;9.838;2023-06-10T14:03:20;32.80;1.00
75821;DHT22;64454;51.984;9.838;2023-06-10T14:05:48;32.90;1.00
75821;DHT22;64454;51.984;9.838;2023-06-10T14:08:15;32.80;1.00
75821;DHT22;64454;51.984;9.838;2023-06-10T14:10:42;32.90;1.00
75821;DHT22;64454;51.984;9.838;2023-06-10T14:13:09;32.80;1.00
75821;DHT22;64454;51.984;9.838;2023-06-10T14:15:36;32.70;1.00
75821;DHT22;64454;51.984;9.838;2023-06-10T14:18:04;32.50;1.00
75821;DHT22;64454;51.984;9.838;2023-06-10T14:20:31;32.30;1.00
75821;DHT22;64454;51.984;9.838;2023-06-10T14:22:59;32.20;1.00
75821;DHT22;64454;51.984;9.838;2023-06-10T14:25:26;32.20;1.00
75821;DHT22;64454;51.984;9.838;2023-06-10T14:27:53;32.20;1.00
75821;DHT22;64454;51.984;9.838;2023-06-10T14:30:20;32.20;1.00
75821;DHT22;64454;51.984;9.838;2023-06-10T14:32:46;32.20;1.00
75821;DHT22;64454;51.984;9.838;2023-06-10T14:35:13;32.40;1.00
75821;DHT22;64454;51.984;9.838;2023-06-10T14:37:40;32.40;1.00
75821;DHT22;64454;51.984;9.838;2023-06-10T14:40:09;32.60;1.00
75821;DHT22;64454;51.984;9.838;2023-06-10T14:42:36;32.60;1.00
75821;DHT22;64454;51.984;9.838;2023-06-10T14:45:04;32.70;1.00
75821;DHT22;64454;51.984;9.838;2023-06-10T14:47:32;32.50;1.00
75821;DHT22;64454;51.984;9.838;2023-06-10T14:49:59;32.30;1.00
75821;DHT22;64454;51.984;9.838;2023-06-10T14:52:25;32.20;1.00
75821;DHT22;64454;51.984;9.838;2023-06-10T14:54:52;32.20;1.00
75821;DHT22;64454;51.984;9.838;2023-06-10T14:57:20;32.10;1.00
75821;DHT22;64454;51.984;9.838;2023-06-10T14:59:47;32.10;1.00
75821;DHT22;64454;51.984;9.838;2023-06-10T15:02:14;31.90;1.00
75821;DHT22;64454;51.984;9.838;2023-06-10T15:04:41;31.90;1.00
75821;DHT22;64454;51.984;9.838;2023-06-10T15:07:07;32.00;1.00
75821;DHT22;64454;51.984;9.838;2023-06-10T15:09:34;31.90;1.00
75821;DHT22;64454;51.984;9.838;2023-06-10T15:12:01;32.00;1.00
75821;DHT22;64454;51.984;9.838;2023-06-10T15:14:30;31.90;1.00
75821;DHT22;64454;51.984;9.838;2023-06-10T15:16:57;31.90;1.00
75821;DHT22;64454;51.984;9.838;2023-06-10T15:19:24;32.00;1.00
75821;DHT22;64454;51.984;9.838;2023-06-10T15:21:51;31.90;1.00
75821;DHT22;64454;51.984;9.838;2023-06-10T15:24:19;31.80;1.00
75821;DHT22;64454;51.984;9.838;2023-06-10T15:26:46;31.80;1.00
75821;DHT22;64454;51.984;9.838;2023-06-10T15:29:14;32.00;1.00
75821;DHT22;64454;51.984;9.838;2023-06-10T15:31:44;32.10;1.00
75821;DHT22;64454;51.984;9.838;2023-06-10T15:34:11;32.10;1.00
75821;DHT22;64454;51.984;9.838;2023-06-10T15:36:38;32.00;1.00
75821;DHT22;64454;51.984;9.838;2023-06-10T15:39:06;32.00;1.00
75821;DHT22;64454;51.984;9.838;2023-06-10T15:41:33;31.80;1.00
75821;DHT22;64454;51.984;9.838;2023-06-10T15:44:00;31.70;1.00
75821;DHT22;64454;51.984;9.838;2023-06-10T15:46:27;31.70;1.00
75821;DHT22;64454;51.984;9.838;2023-06-10T15:48:56;31.60;1.00
75821;DHT22;64454;51.984;9.838;2023-06-10T15:51:23;31.60;1.00
75821;DHT22;64454;51.984;9.838;2023-06-10T15:53:50;31.60;1.00